sensor_id;sensor_type;location;lat;lon;timestamp;P1;durP1;ratioP1;P2;durP2;ratioP2
23608;SDS011;11982;50.810;4.442;2023-01-19T00:01:46;49.72;;;23.65;;
23608;SDS011;11982;50.810;4.442;2023-01-19T00:04:12;55.42;;;23.92;;
23608;SDS011;11982;50.810;4.442;2023-01-19T00:06:37;52.50;;;24.02;;
23608;SDS011;11982;50.810;4.442;2023-01-19T00:09:03;49.30;;;24.80;;
23608;SDS011;11982;50.810;4.442;2023-01-19T00:11:29;42.97;;;22.90;;
23608;SDS011;11982;50.810;4.442;2023-01-19T00:13:54;49.03;;;23.70;;
23608;SDS011;11982;50.810;4.442;2023-01-19T00:16:20;57.45;;;25.63;;
23608;SDS011;11982;50.810;4.442;2023-01-19T00:18:47;52.45;;;24.42;;
23608;SDS011;11982;50.810;4.442;2023-01-19T00:21:15;53.40;;;26.75;;
23608;SDS011;11982;50.810;4.442;2023-01-19T00:23:41;51.17;;;24.23;;
23608;SDS011;11982;50.810;4.442;2023-01-19T00:26:08;49.28;;;23.50;;
23608;SDS011;11982;50.810;4.442;2023-01-19T00:28:34;51.17;;;25.27;;
23608;SDS011;11982;50.810;4.442;2023-01-19T00:31:00;51.00;;;23.17;;
23608;SDS011;11982;50.810;4.442;2023-01-19T00:33:26;52.22;;;24.58;;
23608;SDS011;11982;50.810;4.442;2023-01-19T00:35:52;48.50;;;24.35;;
23608;SDS011;11982;50.810;4.442;2023-01-19T00:38:19;50.70;;;25.35;;
23608;SDS011;11982;50.810;4.442;2023-01-19T00:40:45;62.28;;;26.35;;
23608;SDS011;11982;50.810;4.442;2023-01-19T00:43:12;59.47;;;24.67;;
23608;SDS011;11982;50.810;4.442;2023-01-19T00:45:37;55.25;;;25.67;;
23608;SDS011;11982;50.810;4.442;2023-01-19T00:48:03;49.45;;;23.90;;
23608;SDS011;11982;50.810;4.442;2023-01-19T00:50:30;57.00;;;25.25;;
23608;SDS011;11982;50.810;4.442;2023-01-19T00:52:56;51.78;;;23.75;;
23608;SDS011;11982;50.810;4.442;2023-01-19T00:55:24;51.88;;;25.35;;
23608;SDS011;11982;50.810;4.442;2023-01-19T00:57:52;50.47;;;24.50;;
23608;SDS011;11982;50.810;4.442;2023-01-19T01:00:19;56.80;;;24.67;;
23608;SDS011;11982;50.810;4.442;2023-01-19T01:02:45;52.70;;;23.25;;
23608;SDS011;11982;50.810;4.442;2023-01-19T01:05:11;49.13;;;24.15;;
23608;SDS011;11982;50.810;4.442;2023-01-19T01:07:37;45.38;;;22.52;;
23608;SDS011;11982;50.810;4.442;2023-01-19T01:10:12;48.10;;;22.23;;
23608;SDS011;11982;50.810;4.442;2023-01-19T01:12:41;56.35;;;24.67;;
23608;SDS011;11982;50.810;4.442;2023-01-19T01:15:08;46.22;;;22.98;;
23608;SDS011;11982;50.810;4.442;2023-01-19T01:17:38;52.22;;;24.00;;
23608;SDS011;11982;50.810;4.442;2023-01-19T01:20:15;52.75;;;24.52;;
23608;SDS011;11982;50.810;4.442;2023-01-19T01:22:50;46.67;;;21.20;;
23608;SDS011;11982;50.810;4.442;2023-01-19T01:25:18;47.60;;;22.38;;
23608;SDS011;11982;50.810;4.442;2023-01-19T01:27:46;44.08;;;21.92;;
23608;SDS011;11982;50.810;4.442;2023-01-19T01:30:13;47.85;;;22.35;;
23608;SDS011;11982;50.810;4.442;2023-01-19T01:32:39;40.80;;;21.77;;
23608;SDS011;11982;50.810;4.442;2023-01-19T01:35:05;49.88;;;23.00;;
23608;SDS011;11982;50.810;4.442;2023-01-19T01:37:33;48.45;;;23.27;;
23608;SDS011;11982;50.810;4.442;2023-01-19T01:39:59;47.88;;;22.55;;
23608;SDS011;11982;50.810;4.442;2023-01-19T01:42:26;42.33;;;22.80;;
23608;SDS011;11982;50.810;4.442;2023-01-19T01:44:54;47.83;;;21.70;;
23608;SDS011;11982;50.810;4.442;2023-01-19T01:47:26;48.10;;;21.30;;
23608;SDS011;11982;50.810;4.442;2023-01-19T01:50:17;48.03;;;21.67;;
23608;SDS011;11982;50.810;4.442;2023-01-19T01:52:50;50.40;;;21.08;;
23608;SDS011;11982;50.810;4.442;2023-01-19T01:55:19;48.75;;;23.92;;
23608;SDS011;11982;50.810;4.442;2023-01-19T01:57:49;55.05;;;23.38;;
23608;SDS011;11982;50.810;4.442;2023-01-19T02:00:22;45.80;;;20.38;;
23608;SDS011;11982;50.810;4.442;2023-01-19T02:02:49;49.53;;;21.77;;
23608;SDS011;11982;50.810;4.442;2023-01-19T02:05:28;50.72;;;21.58;;
23608;SDS011;11982;50.810;4.442;2023-01-19T02:11:02;45.97;;;21.50;;
23608;SDS011;11982;50.810;4.442;2023-01-19T02:13:47;46.22;;;21.80;;
23608;SDS011;11982;50.810;4.442;2023-01-19T02:16:13;52.70;;;22.60;;
23608;SDS011;11982;50.810;4.442;2023-01-19T02:18:41;48.85;;;23.05;;
23608;SDS011;11982;50.810;4.442;2023-01-19T02:21:18;45.83;;;22.58;;
23608;SDS011;11982;50.810;4.442;2023-01-19T02:23:59;56.33;;;22.48;;
23608;SDS011;11982;50.810;4.442;2023-01-19T02:26:28;55.72;;;23.25;;
23608;SDS011;11982;50.810;4.442;2023-01-19T02:31:25;54.47;;;21.55;;
23608;SDS011;11982;50.810;4.442;2023-01-19T02:33:53;44.28;;;21.45;;
23608;SDS011;11982;50.810;4.442;2023-01-19T02:36:23;50.20;;;22.08;;
23608;SDS011;11982;50.810;4.442;2023-01-19T02:38:53;56.70;;;23.92;;
23608;SDS011;11982;50.810;4.442;2023-01-19T02:41:21;54.10;;;23.27;;
23608;SDS011;11982;50.810;4.442;2023-01-19T02:43:52;46.50;;;22.45;;
23608;SDS011;11982;50.810;4.442;2023-01-19T02:46:20;55.40;;;24.05;;
23608;SDS011;11982;50.810;4.442;2023-01-19T02:48:46;53.92;;;22.80;;
23608;SDS011;11982;50.810;4.442;2023-01-19T02:53:52;56.05;;;23.27;;
23608;SDS011;11982;50.810;4.442;2023-01-19T02:56:44;53.15;;;23.00;;
23608;SDS011;11982;50.810;4.442;2023-01-19T03:15:53;55.92;;;23.70;;
23608;SDS011;11982;50.810;4.442;2023-01-19T03:18:23;49.35;;;22.45;;
23608;SDS011;11982;50.810;4.442;2023-01-19T03:20:51;56.08;;;23.30;;
23608;SDS011;11982;50.810;4.442;2023-01-19T03:23:19;51.28;;;22.52;;
23608;SDS011;11982;50.810;4.442;2023-01-19T03:25:48;53.85;;;23.30;;
23608;SDS011;11982;50.810;4.442;2023-01-19T03:28:17;48.33;;;21.85;;
23608;SDS011;11982;50.810;4.442;2023-01-19T03:30:48;54.40;;;23.23;;
23608;SDS011;11982;50.810;4.442;2023-01-19T03:33:24;50.45;;;22.42;;
23608;SDS011;11982;50.810;4.442;2023-01-19T03:35:56;55.72;;;21.58;;
23608;SDS011;11982;50.810;4.442;2023-01-19T03:38:30;54.40;;;20.70;;
23608;SDS011;11982;50.810;4.442;2023-01-19T03:41:00;50.92;;;21.40;;
23608;SDS011;11982;50.810;4.442;2023-01-19T03:43:29;52.55;;;20.00;;
23608;SDS011;11982;50.810;4.442;2023-01-19T03:45:56;46.00;;;21.13;;
23608;SDS011;11982;50.810;4.442;2023-01-19T03:48:22;54.50;;;22.95;;
23608;SDS011;11982;50.810;4.442;2023-01-19T03:50:48;49.30;;;23.13;;
23608;SDS011;11982;50.810;4.442;2023-01-19T03:53:16;61.13;;;22.25;;
23608;SDS011;11982;50.810;4.442;2023-01-19T03:55:43;54.63;;;23.08;;
23608;SDS011;11982;50.810;4.442;2023-01-19T03:58:12;56.38;;;22.10;;
23608;SDS011;11982;50.810;4.442;2023-01-19T04:00:38;51.03;;;23.23;;
23608;SDS011;11982;50.810;4.442;2023-01-19T04:03:04;50.83;;;23.17;;
23608;SDS011;11982;50.810;4.442;2023-01-19T04:05:31;59.70;;;23.48;;
23608;SDS011;11982;50.810;4.442;2023-01-19T04:07:57;47.42;;;22.15;;
23608;SDS011;11982;50.810;4.442;2023-01-19T04:10:23;53.50;;;22.38;;
23608;SDS011;11982;50.810;4.442;2023-01-19T04:12:50;54.40;;;24.15;;
23608;SDS011;11982;50.810;4.442;2023-01-19T04:15:22;50.35;;;21.45;;
23608;SDS011;11982;50.810;4.442;2023-01-19T04:17:47;53.85;;;22.25;;
23608;SDS011;11982;50.810;4.442;2023-01-19T04:20:13;51.13;;;21.95;;
23608;SDS011;11982;50.810;4.442;2023-01-19T04:22:39;51.00;;;23.63;;
23608;SDS011;11982;50.810;4.442;2023-01-19T04:25:05;51.25;;;22.75;;
23608;SDS011;11982;50.810;4.442;2023-01-19T04:27:31;54.50;;;23.33;;
23608;SDS011;11982;50.810;4.442;2023-01-19T04:29:57;55.88;;;24.23;;
23608;SDS011;11982;50.810;4.442;2023-01-19T04:32:24;66.30;;;25.90;;
23608;SDS011;11982;50.810;4.442;2023-01-19T04:34:50;59.83;;;25.80;;
23608;SDS011;11982;50.810;4.442;2023-01-19T04:37:18;60.65;;;26.40;;
23608;SDS011;11982;50.810;4.442;2023-01-19T04:39:44;67.78;;;27.15;;
23608;SDS011;11982;50.810;4.442;2023-01-19T04:42:09;61.33;;;27.20;;
23608;SDS011;11982;50.810;4.442;2023-01-19T04:44:35;69.30;;;28.35;;
23608;SDS011;11982;50.810;4.442;2023-01-19T04:47:00;64.30;;;28.17;;
23608;SDS011;11982;50.810;4.442;2023-01-19T04:49:26;73.80;;;28.88;;
23608;SDS011;11982;50.810;4.442;2023-01-19T04:51:52;67.47;;;28.98;;
23608;SDS011;11982;50.810;4.442;2023-01-19T04:54:18;75.30;;;30.23;;
23608;SDS011;11982;50.810;4.442;2023-01-19T04:56:47;67.60;;;29.08;;
23608;SDS011;11982;50.810;4.442;2023-01-19T04:59:13;73.93;;;30.05;;
23608;SDS011;11982;50.810;4.442;2023-01-19T05:01:39;79.57;;;31.60;;
23608;SDS011;11982;50.810;4.442;2023-01-19T05:04:05;76.55;;;32.90;;
23608;SDS011;11982;50.810;4.442;2023-01-19T05:06:32;76.38;;;31.52;;
23608;SDS011;11982;50.810;4.442;2023-01-19T05:08:58;75.78;;;30.85;;
23608;SDS011;11982;50.810;4.442;2023-01-19T05:11:24;78.28;;;31.38;;
23608;SDS011;11982;50.810;4.442;2023-01-19T05:13:50;76.93;;;31.58;;
23608;SDS011;11982;50.810;4.442;2023-01-19T05:16:15;80.40;;;30.92;;
23608;SDS011;11982;50.810;4.442;2023-01-19T05:18:41;68.60;;;27.13;;
23608;SDS011;11982;50.810;4.442;2023-01-19T05:21:07;83.90;;;32.83;;
23608;SDS011;11982;50.810;4.442;2023-01-19T05:23:32;84.75;;;31.33;;
23608;SDS011;11982;50.810;4.442;2023-01-19T05:25:59;78.78;;;32.00;;
23608;SDS011;11982;50.810;4.442;2023-01-19T05:28:26;72.07;;;31.20;;
23608;SDS011;11982;50.810;4.442;2023-01-19T05:30:53;82.57;;;31.83;;
23608;SDS011;11982;50.810;4.442;2023-01-19T05:33:19;84.03;;;32.60;;
23608;SDS011;11982;50.810;4.442;2023-01-19T05:35:46;73.47;;;31.23;;
23608;SDS011;11982;50.810;4.442;2023-01-19T05:38:14;78.18;;;30.92;;
23608;SDS011;11982;50.810;4.442;2023-01-19T05:40:40;89.18;;;31.48;;
23608;SDS011;11982;50.810;4.442;2023-01-19T05:43:06;78.93;;;32.97;;
23608;SDS011;11982;50.810;4.442;2023-01-19T05:45:31;81.75;;;31.85;;
23608;SDS011;11982;50.810;4.442;2023-01-19T05:47:58;80.85;;;31.73;;
23608;SDS011;11982;50.810;4.442;2023-01-19T05:50:23;78.28;;;33.08;;
23608;SDS011;11982;50.810;4.442;2023-01-19T05:52:49;74.13;;;29.73;;
23608;SDS011;11982;50.810;4.442;2023-01-19T05:55:17;76.95;;;31.15;;
23608;SDS011;11982;50.810;4.442;2023-01-19T05:57:43;89.38;;;32.65;;
23608;SDS011;11982;50.810;4.442;2023-01-19T06:00:09;74.55;;;31.63;;
23608;SDS011;11982;50.810;4.442;2023-01-19T06:02:35;73.18;;;30.95;;
23608;SDS011;11982;50.810;4.442;2023-01-19T06:05:01;77.40;;;31.20;;
23608;SDS011;11982;50.810;4.442;2023-01-19T06:07:26;71.55;;;32.38;;
23608;SDS011;11982;50.810;4.442;2023-01-19T06:09:52;72.25;;;30.83;;
23608;SDS011;11982;50.810;4.442;2023-01-19T06:12:17;71.60;;;30.23;;
23608;SDS011;11982;50.810;4.442;2023-01-19T06:14:43;77.00;;;30.70;;
23608;SDS011;11982;50.810;4.442;2023-01-19T06:17:09;78.70;;;30.70;;
23608;SDS011;11982;50.810;4.442;2023-01-19T06:19:34;68.35;;;28.67;;
23608;SDS011;11982;50.810;4.442;2023-01-19T06:22:00;75.68;;;31.00;;
23608;SDS011;11982;50.810;4.442;2023-01-19T06:24:26;68.25;;;30.40;;
23608;SDS011;11982;50.810;4.442;2023-01-19T06:26:53;73.10;;;30.60;;
23608;SDS011;11982;50.810;4.442;2023-01-19T06:29:19;83.18;;;29.95;;
23608;SDS011;11982;50.810;4.442;2023-01-19T06:31:46;76.57;;;31.58;;
23608;SDS011;11982;50.810;4.442;2023-01-19T06:34:11;76.78;;;30.90;;
23608;SDS011;11982;50.810;4.442;2023-01-19T06:36:37;66.88;;;30.00;;
23608;SDS011;11982;50.810;4.442;2023-01-19T06:39:03;73.95;;;31.45;;
23608;SDS011;11982;50.810;4.442;2023-01-19T06:41:30;83.65;;;32.95;;
23608;SDS011;11982;50.810;4.442;2023-01-19T06:43:57;81.93;;;31.23;;
23608;SDS011;11982;50.810;4.442;2023-01-19T06:46:22;80.13;;;32.17;;
23608;SDS011;11982;50.810;4.442;2023-01-19T06:48:48;78.07;;;32.13;;
23608;SDS011;11982;50.810;4.442;2023-01-19T06:51:14;80.95;;;31.10;;
23608;SDS011;11982;50.810;4.442;2023-01-19T06:53:39;83.15;;;32.72;;
23608;SDS011;11982;50.810;4.442;2023-01-19T06:56:05;93.72;;;32.95;;
23608;SDS011;11982;50.810;4.442;2023-01-19T06:58:32;92.72;;;35.22;;
23608;SDS011;11982;50.810;4.442;2023-01-19T07:01:02;78.45;;;33.88;;
23608;SDS011;11982;50.810;4.442;2023-01-19T07:03:29;84.78;;;31.30;;
23608;SDS011;11982;50.810;4.442;2023-01-19T07:05:56;82.57;;;32.83;;
23608;SDS011;11982;50.810;4.442;2023-01-19T07:08:22;88.25;;;34.78;;
23608;SDS011;11982;50.810;4.442;2023-01-19T07:10:48;84.38;;;34.58;;
23608;SDS011;11982;50.810;4.442;2023-01-19T07:13:14;78.55;;;32.97;;
23608;SDS011;11982;50.810;4.442;2023-01-19T07:15:40;78.63;;;31.58;;
23608;SDS011;11982;50.810;4.442;2023-01-19T07:18:06;89.30;;;35.60;;
23608;SDS011;11982;50.810;4.442;2023-01-19T07:20:33;78.20;;;32.03;;
23608;SDS011;11982;50.810;4.442;2023-01-19T07:23:00;92.82;;;33.05;;
23608;SDS011;11982;50.810;4.442;2023-01-19T07:25:26;85.20;;;34.30;;
23608;SDS011;11982;50.810;4.442;2023-01-19T07:27:57;94.15;;;34.45;;
23608;SDS011;11982;50.810;4.442;2023-01-19T07:30:23;90.95;;;34.13;;
23608;SDS011;11982;50.810;4.442;2023-01-19T07:32:49;87.32;;;33.45;;
23608;SDS011;11982;50.810;4.442;2023-01-19T07:35:14;81.45;;;33.03;;
23608;SDS011;11982;50.810;4.442;2023-01-19T07:37:40;84.15;;;32.63;;
23608;SDS011;11982;50.810;4.442;2023-01-19T07:40:06;74.50;;;31.35;;
23608;SDS011;11982;50.810;4.442;2023-01-19T07:42:32;89.75;;;32.30;;
23608;SDS011;11982;50.810;4.442;2023-01-19T07:44:57;72.40;;;31.48;;
23608;SDS011;11982;50.810;4.442;2023-01-19T07:47:23;83.30;;;31.23;;
23608;SDS011;11982;50.810;4.442;2023-01-19T07:49:49;80.53;;;30.92;;
23608;SDS011;11982;50.810;4.442;2023-01-19T07:52:14;76.13;;;30.67;;
23608;SDS011;11982;50.810;4.442;2023-01-19T07:54:40;74.75;;;29.98;;
23608;SDS011;11982;50.810;4.442;2023-01-19T07:57:06;71.50;;;30.10;;
23608;SDS011;11982;50.810;4.442;2023-01-19T07:59:31;83.10;;;30.75;;
23608;SDS011;11982;50.810;4.442;2023-01-19T08:01:57;74.50;;;28.70;;
23608;SDS011;11982;50.810;4.442;2023-01-19T08:04:27;75.10;;;30.77;;
23608;SDS011;11982;50.810;4.442;2023-01-19T08:06:53;75.03;;;28.67;;
23608;SDS011;11982;50.810;4.442;2023-01-19T08:09:19;75.18;;;28.92;;
23608;SDS011;11982;50.810;4.442;2023-01-19T08:11:45;79.30;;;30.20;;
23608;SDS011;11982;50.810;4.442;2023-01-19T08:14:11;72.80;;;30.27;;
23608;SDS011;11982;50.810;4.442;2023-01-19T08:16:37;72.93;;;28.65;;
23608;SDS011;11982;50.810;4.442;2023-01-19T08:19:03;76.95;;;31.30;;
23608;SDS011;11982;50.810;4.442;2023-01-19T08:21:28;71.75;;;29.83;;
23608;SDS011;11982;50.810;4.442;2023-01-19T08:23:55;75.20;;;28.00;;
23608;SDS011;11982;50.810;4.442;2023-01-19T08:26:28;82.60;;;30.30;;
23608;SDS011;11982;50.810;4.442;2023-01-19T08:28:56;72.45;;;28.48;;
23608;SDS011;11982;50.810;4.442;2023-01-19T08:31:25;72.20;;;29.02;;
23608;SDS011;11982;50.810;4.442;2023-01-19T08:33:51;71.85;;;29.80;;
23608;SDS011;11982;50.810;4.442;2023-01-19T08:36:17;67.10;;;28.35;;
23608;SDS011;11982;50.810;4.442;2023-01-19T08:38:43;72.53;;;29.92;;
23608;SDS011;11982;50.810;4.442;2023-01-19T08:41:10;70.97;;;27.60;;
23608;SDS011;11982;50.810;4.442;2023-01-19T08:43:36;80.72;;;29.92;;
23608;SDS011;11982;50.810;4.442;2023-01-19T08:46:02;71.72;;;27.23;;
23608;SDS011;11982;50.810;4.442;2023-01-19T08:48:29;75.93;;;30.77;;
23608;SDS011;11982;50.810;4.442;2023-01-19T08:50:54;73.13;;;28.88;;
23608;SDS011;11982;50.810;4.442;2023-01-19T08:53:20;72.10;;;28.73;;
23608;SDS011;11982;50.810;4.442;2023-01-19T08:55:47;73.75;;;27.95;;
23608;SDS011;11982;50.810;4.442;2023-01-19T08:58:14;76.63;;;26.02;;
23608;SDS011;11982;50.810;4.442;2023-01-19T09:00:40;66.47;;;27.23;;
23608;SDS011;11982;50.810;4.442;2023-01-19T09:03:07;70.40;;;28.02;;
23608;SDS011;11982;50.810;4.442;2023-01-19T09:05:36;59.70;;;22.38;;
23608;SDS011;11982;50.810;4.442;2023-01-19T09:08:04;70.43;;;28.55;;
23608;SDS011;11982;50.810;4.442;2023-01-19T09:10:32;71.43;;;28.63;;
23608;SDS011;11982;50.810;4.442;2023-01-19T09:13:05;76.35;;;27.98;;
23608;SDS011;11982;50.810;4.442;2023-01-19T09:15:32;74.22;;;26.90;;
23608;SDS011;11982;50.810;4.442;2023-01-19T09:18:00;75.00;;;26.83;;
23608;SDS011;11982;50.810;4.442;2023-01-19T09:20:27;64.55;;;25.38;;
23608;SDS011;11982;50.810;4.442;2023-01-19T09:22:55;70.70;;;26.50;;
23608;SDS011;11982;50.810;4.442;2023-01-19T09:25:24;75.78;;;25.45;;
23608;SDS011;11982;50.810;4.442;2023-01-19T09:27:50;72.70;;;24.83;;
23608;SDS011;11982;50.810;4.442;2023-01-19T09:30:17;71.70;;;25.02;;
23608;SDS011;11982;50.810;4.442;2023-01-19T09:32:44;66.00;;;25.85;;
23608;SDS011;11982;50.810;4.442;2023-01-19T09:35:10;72.38;;;27.23;;
23608;SDS011;11982;50.810;4.442;2023-01-19T09:37:36;68.63;;;27.52;;
23608;SDS011;11982;50.810;4.442;2023-01-19T09:40:03;66.40;;;25.00;;
23608;SDS011;11982;50.810;4.442;2023-01-19T09:44:58;69.32;;;26.05;;
23608;SDS011;11982;50.810;4.442;2023-01-19T09:47:26;68.43;;;24.05;;
23608;SDS011;11982;50.810;4.442;2023-01-19T09:49:58;63.20;;;23.77;;
23608;SDS011;11982;50.810;4.442;2023-01-19T09:52:28;57.10;;;23.63;;
23608;SDS011;11982;50.810;4.442;2023-01-19T09:54:56;55.95;;;20.83;;
23608;SDS011;11982;50.810;4.442;2023-01-19T09:57:23;57.90;;;22.90;;
23608;SDS011;11982;50.810;4.442;2023-01-19T09:59:51;70.53;;;24.15;;
23608;SDS011;11982;50.810;4.442;2023-01-19T10:04:59;61.65;;;23.73;;
23608;SDS011;11982;50.810;4.442;2023-01-19T10:10:25;60.30;;;21.88;;
23608;SDS011;11982;50.810;4.442;2023-01-19T10:24:01;53.55;;;21.70;;
23608;SDS011;11982;50.810;4.442;2023-01-19T10:26:37;51.55;;;21.48;;
23608;SDS011;11982;50.810;4.442;2023-01-19T10:32:23;59.63;;;22.13;;
23608;SDS011;11982;50.810;4.442;2023-01-19T10:34:51;56.05;;;21.98;;
23608;SDS011;11982;50.810;4.442;2023-01-19T10:42:33;61.95;;;21.13;;
23608;SDS011;11982;50.810;4.442;2023-01-19T10:44:59;50.90;;;20.35;;
23608;SDS011;11982;50.810;4.442;2023-01-19T10:47:29;60.53;;;21.73;;
23608;SDS011;11982;50.810;4.442;2023-01-19T10:49:58;46.50;;;21.02;;
23608;SDS011;11982;50.810;4.442;2023-01-19T10:52:34;54.42;;;20.77;;
23608;SDS011;11982;50.810;4.442;2023-01-19T10:55:04;57.90;;;21.73;;
23608;SDS011;11982;50.810;4.442;2023-01-19T10:57:35;57.42;;;21.20;;
23608;SDS011;11982;50.810;4.442;2023-01-19T11:00:05;54.63;;;20.17;;
23608;SDS011;11982;50.810;4.442;2023-01-19T11:02:51;55.40;;;21.08;;
23608;SDS011;11982;50.810;4.442;2023-01-19T11:05:21;51.88;;;20.02;;
23608;SDS011;11982;50.810;4.442;2023-01-19T11:07:51;51.38;;;19.77;;
23608;SDS011;11982;50.810;4.442;2023-01-19T11:12:54;59.92;;;22.52;;
23608;SDS011;11982;50.810;4.442;2023-01-19T11:17:56;63.50;;;22.52;;
23608;SDS011;11982;50.810;4.442;2023-01-19T11:20:26;55.30;;;23.30;;
23608;SDS011;11982;50.810;4.442;2023-01-19T11:23:09;55.65;;;22.27;;
23608;SDS011;11982;50.810;4.442;2023-01-19T11:25:50;72.13;;;23.65;;
23608;SDS011;11982;50.810;4.442;2023-01-19T11:28:30;52.42;;;22.45;;
23608;SDS011;11982;50.810;4.442;2023-01-19T11:30:59;59.45;;;24.25;;
23608;SDS011;11982;50.810;4.442;2023-01-19T11:33:35;53.53;;;20.88;;
23608;SDS011;11982;50.810;4.442;2023-01-19T11:36:16;61.05;;;23.42;;
23608;SDS011;11982;50.810;4.442;2023-01-19T11:38:43;54.05;;;20.23;;
23608;SDS011;11982;50.810;4.442;2023-01-19T11:41:27;63.35;;;25.90;;
23608;SDS011;11982;50.810;4.442;2023-01-19T11:44:04;64.22;;;24.75;;
23608;SDS011;11982;50.810;4.442;2023-01-19T11:46:53;55.25;;;22.02;;
23608;SDS011;11982;50.810;4.442;2023-01-19T11:49:25;55.83;;;24.17;;
23608;SDS011;11982;50.810;4.442;2023-01-19T11:52:15;53.55;;;23.08;;
23608;SDS011;11982;50.810;4.442;2023-01-19T11:54:59;58.42;;;23.92;;
23608;SDS011;11982;50.810;4.442;2023-01-19T11:57:44;52.40;;;23.35;;
23608;SDS011;11982;50.810;4.442;2023-01-19T12:00:26;45.53;;;20.77;;
23608;SDS011;11982;50.810;4.442;2023-01-19T12:02:57;51.20;;;21.60;;
23608;SDS011;11982;50.810;4.442;2023-01-19T12:05:52;53.45;;;21.02;;
23608;SDS011;11982;50.810;4.442;2023-01-19T12:08:24;45.40;;;21.52;;
23608;SDS011;11982;50.810;4.442;2023-01-19T12:10:56;54.53;;;21.50;;
23608;SDS011;11982;50.810;4.442;2023-01-19T12:13:25;52.30;;;20.42;;
23608;SDS011;11982;50.810;4.442;2023-01-19T12:15:56;49.03;;;20.85;;
23608;SDS011;11982;50.810;4.442;2023-01-19T12:18:29;51.15;;;20.52;;
23608;SDS011;11982;50.810;4.442;2023-01-19T12:21:03;52.17;;;21.58;;
23608;SDS011;11982;50.810;4.442;2023-01-19T12:26:34;47.30;;;20.80;;
23608;SDS011;11982;50.810;4.442;2023-01-19T12:29:03;51.75;;;20.88;;
23608;SDS011;11982;50.810;4.442;2023-01-19T12:31:30;41.83;;;20.63;;
23608;SDS011;11982;50.810;4.442;2023-01-19T12:34:03;46.55;;;20.35;;
23608;SDS011;11982;50.810;4.442;2023-01-19T12:39:19;44.53;;;19.67;;
23608;SDS011;11982;50.810;4.442;2023-01-19T12:41:47;49.10;;;20.63;;
23608;SDS011;11982;50.810;4.442;2023-01-19T12:44:27;41.63;;;19.50;;
23608;SDS011;11982;50.810;4.442;2023-01-19T12:46:57;46.83;;;20.60;;
23608;SDS011;11982;50.810;4.442;2023-01-19T12:49:46;39.22;;;19.25;;
23608;SDS011;11982;50.810;4.442;2023-01-19T12:52:19;42.55;;;20.63;;
23608;SDS011;11982;50.810;4.442;2023-01-19T13:00:26;37.22;;;19.45;;
23608;SDS011;11982;50.810;4.442;2023-01-19T13:02:45;43.90;;;20.40;;
23608;SDS011;11982;50.810;4.442;2023-01-19T13:13:18;40.75;;;20.48;;
23608;SDS011;11982;50.810;4.442;2023-01-19T13:15:48;39.58;;;18.58;;
23608;SDS011;11982;50.810;4.442;2023-01-19T13:18:22;37.70;;;19.20;;
23608;SDS011;11982;50.810;4.442;2023-01-19T13:20:56;49.47;;;20.70;;
23608;SDS011;11982;50.810;4.442;2023-01-19T13:23:25;41.60;;;18.98;;
23608;SDS011;11982;50.810;4.442;2023-01-19T13:25:57;42.08;;;19.20;;
23608;SDS011;11982;50.810;4.442;2023-01-19T13:28:31;44.08;;;17.35;;
23608;SDS011;11982;50.810;4.442;2023-01-19T13:31:01;37.65;;;19.58;;
23608;SDS011;11982;50.810;4.442;2023-01-19T13:33:28;41.03;;;20.30;;
23608;SDS011;11982;50.810;4.442;2023-01-19T13:36:02;36.47;;;18.67;;
23608;SDS011;11982;50.810;4.442;2023-01-19T13:38:28;37.15;;;17.33;;
23608;SDS011;11982;50.810;4.442;2023-01-19T13:40:56;40.20;;;17.42;;
23608;SDS011;11982;50.810;4.442;2023-01-19T13:43:31;31.38;;;16.08;;
23608;SDS011;11982;50.810;4.442;2023-01-19T13:46:01;36.72;;;17.48;;
23608;SDS011;11982;50.810;4.442;2023-01-19T13:48:28;44.35;;;17.88;;
23608;SDS011;11982;50.810;4.442;2023-01-19T13:51:03;37.08;;;18.13;;
23608;SDS011;11982;50.810;4.442;2023-01-19T13:53:31;36.50;;;17.45;;
23608;SDS011;11982;50.810;4.442;2023-01-19T14:01:30;37.80;;;16.95;;
23608;SDS011;11982;50.810;4.442;2023-01-19T14:03:57;32.35;;;16.75;;
23608;SDS011;11982;50.810;4.442;2023-01-19T14:09:12;30.90;;;14.30;;
23608;SDS011;11982;50.810;4.442;2023-01-19T14:11:41;33.08;;;14.45;;
23608;SDS011;11982;50.810;4.442;2023-01-19T14:14:20;27.77;;;13.35;;
23608;SDS011;11982;50.810;4.442;2023-01-19T14:16:47;35.50;;;14.85;;
23608;SDS011;11982;50.810;4.442;2023-01-19T14:19:13;32.63;;;15.70;;
23608;SDS011;11982;50.810;4.442;2023-01-19T14:21:39;41.03;;;15.32;;
23608;SDS011;11982;50.810;4.442;2023-01-19T14:29:17;31.30;;;14.73;;
23608;SDS011;11982;50.810;4.442;2023-01-19T14:39:46;35.45;;;17.10;;
23608;SDS011;11982;50.810;4.442;2023-01-19T14:42:24;39.15;;;16.35;;
23608;SDS011;11982;50.810;4.442;2023-01-19T14:47:42;39.35;;;18.13;;
23608;SDS011;11982;50.810;4.442;2023-01-19T14:52:48;35.65;;;17.92;;
23608;SDS011;11982;50.810;4.442;2023-01-19T14:55:22;37.50;;;17.30;;
23608;SDS011;11982;50.810;4.442;2023-01-19T14:58:09;44.33;;;17.77;;
23608;SDS011;11982;50.810;4.442;2023-01-19T15:00:36;36.97;;;16.88;;
23608;SDS011;11982;50.810;4.442;2023-01-19T15:03:02;42.88;;;18.55;;
23608;SDS011;11982;50.810;4.442;2023-01-19T15:05:30;39.90;;;18.77;;
23608;SDS011;11982;50.810;4.442;2023-01-19T15:07:58;38.28;;;19.10;;
23608;SDS011;11982;50.810;4.442;2023-01-19T15:10:26;38.45;;;19.10;;
23608;SDS011;11982;50.810;4.442;2023-01-19T15:12:53;40.55;;;20.42;;
23608;SDS011;11982;50.810;4.442;2023-01-19T15:15:21;36.97;;;19.40;;
23608;SDS011;11982;50.810;4.442;2023-01-19T15:17:53;48.58;;;21.35;;
23608;SDS011;11982;50.810;4.442;2023-01-19T15:20:20;43.83;;;19.98;;
23608;SDS011;11982;50.810;4.442;2023-01-19T15:22:46;41.83;;;20.70;;
23608;SDS011;11982;50.810;4.442;2023-01-19T15:25:13;51.45;;;22.33;;
23608;SDS011;11982;50.810;4.442;2023-01-19T15:27:43;44.83;;;21.17;;
23608;SDS011;11982;50.810;4.442;2023-01-19T15:32:48;49.45;;;23.58;;
23608;SDS011;11982;50.810;4.442;2023-01-19T15:35:18;59.15;;;28.02;;
23608;SDS011;11982;50.810;4.442;2023-01-19T15:37:45;68.13;;;33.28;;
23608;SDS011;11982;50.810;4.442;2023-01-19T15:40:12;83.80;;;38.22;;
23608;SDS011;11982;50.810;4.442;2023-01-19T15:42:39;65.07;;;31.58;;
23608;SDS011;11982;50.810;4.442;2023-01-19T15:47:55;59.28;;;26.70;;
23608;SDS011;11982;50.810;4.442;2023-01-19T15:50:21;66.13;;;29.55;;
23608;SDS011;11982;50.810;4.442;2023-01-19T15:52:48;61.63;;;29.85;;
23608;SDS011;11982;50.810;4.442;2023-01-19T15:55:14;61.65;;;29.65;;
23608;SDS011;11982;50.810;4.442;2023-01-19T15:57:40;63.88;;;28.83;;
23608;SDS011;11982;50.810;4.442;2023-01-19T16:00:06;71.60;;;32.00;;
23608;SDS011;11982;50.810;4.442;2023-01-19T16:02:34;68.18;;;31.17;;
23608;SDS011;11982;50.810;4.442;2023-01-19T16:05:00;70.15;;;29.55;;
23608;SDS011;11982;50.810;4.442;2023-01-19T16:07:26;64.00;;;30.95;;
23608;SDS011;11982;50.810;4.442;2023-01-19T16:09:52;65.88;;;30.90;;
23608;SDS011;11982;50.810;4.442;2023-01-19T16:12:17;72.68;;;31.58;;
23608;SDS011;11982;50.810;4.442;2023-01-19T16:14:43;68.65;;;32.00;;
23608;SDS011;11982;50.810;4.442;2023-01-19T16:17:09;69.43;;;28.88;;
23608;SDS011;11982;50.810;4.442;2023-01-19T16:19:34;62.42;;;27.92;;